Time;durP1;ratioP1;P1;durP2;ratioP2;P2;SDS_P1;SDS_P2;PMS_P1;PMS_P2;Temp;Humidity;BMP_temperature;BMP_pressure;BME280_temperature;BME280_humidity;BME280_pressure;Samples;Min_cycle;Max_cycle;Signal;HPM_P1;HPM_P2
2022/01/20 00:00:15;;;;;;;12.53;12.03;;;18.10;74.90;;;;;;5061787;28;20505;-46
2022/01/20 00:02:42;;;;;;;11.50;11.10;;;18.10;75.60;;;;;;5074929;28;20502;-44
2022/01/20 00:05:24;;;;;;;11.90;11.50;;;18.10;75.90;;;;;;5075168;28;20443;-45
2022/01/20 00:08:05;;;;;;;11.80;11.50;;;18.10;76.40;;;;;;5075242;28;21013;-44
2022/01/20 00:26:51;;;;;;;13.00;12.37;;;17.70;79.50;;;;;;5074764;28;20414;-43
2022/01/20 00:29:25;;;;;;;12.87;12.37;;;17.80;80.60;;;;;;5074274;28;20566;-43
2022/01/20 00:35:10;;;;;;;12.00;11.60;;;17.60;80.90;;;;;;5030864;28;20786;-44
2022/01/20 00:37:36;;;;;;;12.93;12.43;;;17.50;82.20;;;;;;5034576;28;20437;-44
2022/01/20 00:40:04;;;;;;;13.43;12.77;;;17.50;83.00;;;;;;5046532;28;20920;-42
2022/01/20 00:42:30;;;;;;;13.17;12.67;;;17.50;83.70;;;;;;5074008;28;20471;-42
2022/01/20 00:44:57;;;;;;;12.70;12.20;;;17.40;83.80;;;;;;5074439;28;20443;-43
2022/01/20 00:47:25;;;;;;;13.50;12.63;;;17.40;84.70;;;;;;5074153;28;20447;-43
2022/01/20 00:49:52;;;;;;;12.23;11.73;;;17.40;84.40;;;;;;5069700;28;20933;-43
2022/01/20 00:52:18;;;;;;;12.90;12.40;;;17.30;85.40;;;;;;5053773;28;20471;-43
2022/01/20 00:54:45;;;;;;;13.20;12.50;;;17.40;86.10;;;;;;5054221;28;20448;-42
2022/01/20 00:57:12;;;;;;;11.70;11.30;;;17.30;86.30;;;;;;5054221;28;20822;-42
2022/01/20 00:59:39;;;;;;;12.47;11.97;;;17.30;87.00;;;;;;5056113;28;20871;-43
2022/01/20 01:02:08;;;;;;;12.00;11.50;;;17.30;87.90;;;;;;5073900;28;20443;-42
2022/01/20 01:04:37;;;;;;;12.83;12.33;;;17.30;87.90;;;;;;5074028;28;20447;-42
2022/01/20 01:07:32;;;;;;;13.17;12.67;;;17.20;87.40;;;;;;5073476;28;20455;-43
2022/01/20 01:09:59;;;;;;;12.57;12.17;;;17.30;88.70;;;;;;5068754;28;20435;-42
2022/01/20 01:12:33;;;;;;;13.10;12.50;;;17.20;88.80;;;;;;5053694;28;20482;-42
2022/01/20 01:15:02;;;;;;;12.27;11.87;;;17.20;89.10;;;;;;5054001;28;20446;-45
2022/01/20 01:20:20;;;;;;;12.20;11.80;;;17.30;90.10;;;;;;5060099;28;20804;-45
2022/01/20 01:22:47;;;;;;;12.67;12.27;;;17.20;90.00;;;;;;5073429;28;20466;-47
2022/01/20 01:25:14;;;;;;;12.40;11.90;;;17.20;90.20;;;;;;5073702;28;20489;-44
2022/01/20 01:27:43;;;;;;;12.00;11.60;;;17.10;90.60;;;;;;5073609;28;20439;-42
2022/01/20 01:30:37;;;;;;;11.77;11.40;;;17.10;90.60;;;;;;5067587;28;20473;-43
2022/01/20 01:33:06;;;;;;;12.20;11.70;;;17.10;90.70;;;;;;5053338;28;20468;-41
2022/01/20 01:35:39;;;;;;;11.90;11.50;;;17.10;91.10;;;;;;5053561;28;20981;-44
2022/01/20 01:38:35;;;;;;;12.40;11.90;;;17.20;91.00;;;;;;5055390;28;20475;-41
2022/01/20 01:41:04;;;;;;;13.33;12.37;;;17.20;91.10;;;;;;5073594;28;20483;-43
2022/01/20 01:43:32;;;;;;;11.53;11.23;;;17.10;90.90;;;;;;5073174;28;20525;-42
2022/01/20 01:46:00;;;;;;;12.50;12.00;;;17.10;91.20;;;;;;5073237;28;20443;-43
2022/01/20 01:48:27;;;;;;;13.30;12.43;;;17.10;91.20;;;;;;5067924;28;20480;-46
2022/01/20 01:50:55;;;;;;;11.90;11.40;;;17.10;91.10;;;;;;5053217;28;20455;-44
2022/01/20 01:53:23;;;;;;;12.40;11.90;;;17.10;91.30;;;;;;5053161;28;20476;-42
2022/01/20 01:55:49;;;;;;;12.00;11.63;;;17.00;91.40;;;;;;5053101;28;20454;-46
2022/01/20 01:58:16;;;;;;;12.70;12.00;;;17.00;91.60;;;;;;5056137;28;20443;-42
2022/01/20 02:00:43;;;;;;;12.60;11.73;;;17.00;91.40;;;;;;5073006;28;20443;-43
2022/01/20 02:03:10;;;;;;;11.90;11.30;;;17.00;91.60;;;;;;5068606;28;20559;-45
2022/01/20 02:05:48;;;;;;;12.50;12.00;;;16.90;91.60;;;;;;5060846;28;20451;-46
2022/01/20 02:08:35;;;;;;;12.13;11.73;;;16.90;91.90;;;;;;5072926;28;21001;-42
2022/01/20 02:19:16;;;;;;;12.00;11.60;;;17.00;91.60;;;;;;5051838;28;20806;-45
2022/01/20 02:21:49;;;;;;;12.43;11.80;;;17.00;91.80;;;;;;5053508;28;20493;-45
2022/01/20 02:24:17;;;;;;;12.03;11.70;;;16.90;92.00;;;;;;5052461;28;20444;-44
2022/01/20 02:26:43;;;;;;;12.60;12.10;;;16.90;92.20;;;;;;5052428;28;20479;-42
2022/01/20 02:29:10;;;;;;;12.43;12.03;;;16.90;92.10;;;;;;5052383;28;21005;-44
2022/01/20 02:31:37;;;;;;;12.23;11.63;;;16.90;92.40;;;;;;5054991;28;20458;-42
2022/01/20 02:34:04;;;;;;;12.30;11.70;;;16.90;92.10;;;;;;5072153;28;20463;-42
2022/01/20 02:36:31;;;;;;;12.07;11.67;;;16.90;92.10;;;;;;5071950;28;20546;-41
2022/01/20 02:39:06;;;;;;;11.80;11.30;;;16.90;92.30;;;;;;5072178;28;20443;-45
2022/01/20 02:47:10;;;;;;;12.20;11.80;;;16.90;92.20;;;;;;5052177;28;20420;-45
2022/01/20 02:49:37;;;;;;;12.43;11.73;;;16.80;92.00;;;;;;5051927;28;20480;-44
2022/01/20 02:52:06;;;;;;;12.63;12.13;;;16.90;92.50;;;;;;5031765;28;20452;-42
2022/01/20 02:54:34;;;;;;;12.10;11.40;;;16.90;92.30;;;;;;5032149;28;20528;-44
2022/01/20 02:57:01;;;;;;;12.57;12.03;;;16.80;92.40;;;;;;5031924;28;20449;-44
2022/01/20 02:59:28;;;;;;;11.50;11.20;;;16.80;92.50;;;;;;5056820;28;20450;-42
2022/01/20 03:01:55;;;;;;;12.30;11.90;;;16.80;92.50;;;;;;5071586;28;20599;-43
2022/01/20 03:04:25;;;;;;;11.60;11.30;;;16.80;92.80;;;;;;5071834;28;20443;-45
2022/01/20 03:06:52;;;;;;;12.50;11.90;;;16.80;92.50;;;;;;5071755;28;20479;-42
2022/01/20 03:09:18;;;;;;;11.80;11.20;;;16.80;92.10;;;;;;5060563;28;20483;-45
2022/01/20 03:11:46;;;;;;;11.67;11.27;;;16.70;92.50;;;;;;5051619;28;20451;-47
2022/01/20 03:14:14;;;;;;;11.60;11.30;;;16.70;92.60;;;;;;5051597;28;20468;-43
2022/01/20 03:16:40;;;;;;;12.80;12.30;;;16.70;92.60;;;;;;5051753;28;20472;-43
2022/01/20 03:19:07;;;;;;;12.83;12.23;;;16.70;92.60;;;;;;5060514;28;20443;-42
2022/01/20 03:21:34;;;;;;;11.57;11.10;;;16.70;92.50;;;;;;5071478;28;20448;-45
2022/01/20 03:24:00;;;;;;;12.20;11.70;;;16.70;92.70;;;;;;5071464;28;20532;-42
2022/01/20 03:26:27;;;;;;;12.33;11.83;;;16.60;93.00;;;;;;5071639;28;20451;-46
2022/01/20 03:28:57;;;;;;;12.13;11.60;;;16.70;92.70;;;;;;5064101;28;20472;-46
2022/01/20 03:31:23;;;;;;;11.60;11.00;;;16.60;93.20;;;;;;5051392;28;20545;-46
2022/01/20 03:33:50;;;;;;;11.27;10.97;;;16.60;93.10;;;;;;5051225;28;20989;-45
2022/01/20 03:36:17;;;;;;;12.30;11.63;;;16.60;92.70;;;;;;5051375;28;20451;-45
2022/01/20 03:38:44;;;;;;;11.63;11.07;;;16.60;93.00;;;;;;5056705;28;20439;-42
2022/01/20 03:41:11;;;;;;;11.47;11.07;;;16.50;93.00;;;;;;5071475;28;20454;-45
2022/01/20 03:43:38;;;;;;;12.00;11.47;;;16.60;93.50;;;;;;5071091;28;20467;-45
2022/01/20 03:46:11;;;;;;;11.40;10.90;;;16.60;93.10;;;;;;5071401;28;20474;-46
2022/01/20 03:48:48;;;;;;;11.17;10.87;;;16.50;93.40;;;;;;5066574;28;20479;-42
2022/01/20 03:51:15;;;;;;;11.33;10.90;;;16.50;93.50;;;;;;5051349;28;20444;-42
2022/01/20 03:53:42;;;;;;;11.33;10.93;;;16.50;93.00;;;;;;5050921;28;20483;-42
2022/01/20 03:56:09;;;;;;;11.27;10.93;;;16.50;93.80;;;;;;5051292;28;20448;-46
2022/01/20 03:58:36;;;;;;;11.70;11.30;;;16.40;93.60;;;;;;5054910;28;20479;-42
2022/01/20 04:01:03;;;;;;;10.60;10.10;;;16.50;93.80;;;;;;5071167;28;20454;-47
2022/01/20 04:03:31;;;;;;;10.67;10.17;;;16.50;93.50;;;;;;5070968;28;20471;-44
2022/01/20 04:05:58;;;;;;;10.37;9.97;;;16.40;94.10;;;;;;5071287;28;20447;-42
2022/01/20 04:08:26;;;;;;;10.13;9.67;;;16.40;94.10;;;;;;5069257;28;20447;-42
2022/01/20 04:10:53;;;;;;;10.77;10.00;;;16.40;94.10;;;;;;5071135;28;20451;-43
2022/01/20 04:13:20;;;;;;;10.67;10.17;;;16.40;94.10;;;;;;5070781;28;20995;-43
2022/01/20 04:15:48;;;;;;;10.00;9.70;;;16.30;94.00;;;;;;5071071;28;20455;-42
2022/01/20 04:18:20;;;;;;;10.47;10.10;;;16.40;94.20;;;;;;5056141;28;20453;-45
2022/01/20 04:20:49;;;;;;;10.90;10.40;;;16.30;93.70;;;;;;5051142;28;20483;-42
2022/01/20 04:23:16;;;;;;;10.53;10.03;;;16.30;93.40;;;;;;5050717;28;20506;-43
2022/01/20 04:25:43;;;;;;;10.53;9.80;;;16.40;93.90;;;;;;5051081;28;20452;-42
2022/01/20 04:28:09;;;;;;;10.40;10.00;;;16.30;93.80;;;;;;5064341;28;20447;-45
2022/01/20 04:30:36;;;;;;;10.77;10.37;;;16.40;94.10;;;;;;5070836;28;20509;-43
2022/01/20 04:33:03;;;;;;;10.17;9.87;;;16.30;94.10;;;;;;5070736;28;20459;-44
2022/01/20 04:35:30;;;;;;;10.67;10.20;;;16.40;94.20;;;;;;5070904;28;20458;-43
2022/01/20 04:37:59;;;;;;;11.40;10.90;;;16.30;94.20;;;;;;5059043;28;20453;-44
2022/01/20 04:40:26;;;;;;;10.80;10.40;;;16.30;94.60;;;;;;5050784;28;20444;-43
2022/01/20 04:42:54;;;;;;;11.30;10.93;;;16.40;94.50;;;;;;5051812;28;20472;-44
2022/01/20 04:45:26;;;;;;;11.40;11.00;;;16.40;94.60;;;;;;5054395;28;20817;-45
2022/01/20 04:48:00;;;;;;;10.20;9.90;;;16.30;95.10;;;;;;5064779;28;20450;-42
2022/01/20 04:58:42;;;;;;;10.90;10.50;;;16.30;95.60;;;;;;5054425;28;20840;-45
2022/01/20 05:01:09;;;;;;;11.47;11.17;;;16.30;95.50;;;;;;5054187;28;20519;-43
2022/01/20 05:03:36;;;;;;;10.93;10.63;;;16.30;95.70;;;;;;5053665;28;20989;-45
2022/01/20 05:06:02;;;;;;;11.60;11.20;;;16.30;96.00;;;;;;5062672;28;20466;-47
2022/01/20 05:08:31;;;;;;;11.90;11.50;;;16.30;95.70;;;;;;5074044;28;20504;-42
2022/01/20 05:11:01;;;;;;;11.47;11.13;;;16.30;95.50;;;;;;5073801;28;20898;-43
2022/01/20 05:13:33;;;;;;;11.57;11.17;;;16.30;95.90;;;;;;5072343;28;20475;-43
2022/01/20 05:16:00;;;;;;;12.60;11.87;;;16.30;96.60;;;;;;5053892;28;20449;-46
2022/01/20 05:18:27;;;;;;;13.60;12.63;;;16.40;99.90;;;;;;5053798;28;20875;-43
2022/01/20 05:20:54;;;;;;;12.47;11.33;;;16.40;99.90;;;;;;5054121;28;20494;-43
2022/01/20 05:23:21;;;;;;;12.43;11.50;;;16.50;99.90;;;;;;5053308;28;20473;-43
2022/01/20 05:25:49;;;;;;;12.40;11.50;;;16.60;99.90;;;;;;5073377;28;20439;-43
2022/01/20 05:28:16;;;;;;;11.10;9.70;;;16.60;99.90;;;;;;5073638;28;20443;-43
2022/01/20 05:30:43;;;;;;;15.80;9.00;;;16.60;99.90;;;;;;5073414;28;20950;-46
2022/01/20 05:33:10;;;;;;;17.50;7.57;;;16.70;99.90;;;;;;5073192;28;20467;-43
2022/01/20 05:35:37;;;;;;;16.27;11.00;;;16.80;99.90;;;;;;5054422;28;20459;-42
2022/01/20 05:38:05;;;;;;;13.87;9.60;;;16.70;99.90;;;;;;5053499;28;20797;-47
2022/01/20 05:40:34;;;;;;;14.07;9.93;;;16.70;99.90;;;;;;5053414;28;20448;-46
2022/01/20 05:43:02;;;;;;;14.27;8.03;;;16.80;99.90;;;;;;5053015;28;20500;-48
2022/01/20 05:45:29;;;;;;;9.43;8.60;;;16.80;99.90;;;;;;5069778;28;20452;-47
2022/01/20 05:48:07;;;;;;;13.10;9.97;;;16.80;99.90;;;;;;5073185;28;20968;-49
2022/01/20 05:50:34;;;;;;;9.83;8.63;;;16.80;99.90;;;;;;5073141;28;20482;-47
2022/01/20 05:53:02;;;;;;;11.37;10.10;;;17.50;99.90;;;;;;5072774;28;20529;-46
2022/01/20 05:55:30;;;;;;;12.60;11.40;;;18.20;99.90;;;;;;5055712;28;20484;-47
2022/01/20 05:57:57;;;;;;;12.10;11.10;;;18.60;99.90;;;;;;5053124;28;20993;-51
2022/01/20 06:00:25;;;;;;;12.97;11.87;;;18.70;99.90;;;;;;5053152;28;20478;-47
2022/01/20 06:05:38;;;;;;;12.90;11.93;;;19.10;99.90;;;;;;5071016;28;20438;-47
2022/01/20 06:08:05;;;;;;;12.83;11.90;;;19.10;99.90;;;;;;5072819;28;20451;-52
2022/01/20 06:10:32;;;;;;;15.10;12.23;;;19.20;99.90;;;;;;5072919;28;20837;-47
2022/01/20 06:12:59;;;;;;;15.83;14.53;;;19.40;99.90;;;;;;5072481;28;20462;-48
2022/01/20 06:15:27;;;;;;;12.90;12.07;;;19.30;99.90;;;;;;5056235;28;20448;-51
2022/01/20 06:17:54;;;;;;;13.03;11.90;;;19.40;99.90;;;;;;5052731;28;20447;-47
2022/01/20 06:20:21;;;;;;;13.30;12.30;;;19.40;99.90;;;;;;5052528;28;20445;-52
2022/01/20 06:22:48;;;;;;;15.60;14.60;;;19.40;99.90;;;;;;5059809;28;20470;-47
2022/01/20 06:25:14;;;;;;;13.93;12.77;;;19.40;99.90;;;;;;5072526;28;20450;-50
2022/01/20 06:27:41;;;;;;;14.13;12.77;;;19.40;99.90;;;;;;5072546;28;20448;-47
2022/01/20 06:30:09;;;;;;;14.57;13.77;;;19.40;99.90;;;;;;5072446;28;20482;-47
2022/01/20 06:32:38;;;;;;;13.87;13.20;;;19.40;99.90;;;;;;5065686;28;20479;-48
2022/01/20 06:35:06;;;;;;;13.17;12.43;;;19.40;99.90;;;;;;5052475;28;20448;-47
2022/01/20 06:37:32;;;;;;;14.20;13.40;;;19.40;99.90;;;;;;5052283;28;20444;-47
2022/01/20 06:39:59;;;;;;;13.33;12.73;;;19.30;99.90;;;;;;5052088;28;20441;-51
2022/01/20 06:42:26;;;;;;;13.80;12.87;;;19.30;99.90;;;;;;5056069;28;20471;-47
2022/01/20 06:44:52;;;;;;;12.23;11.43;;;19.30;99.90;;;;;;5071062;28;20439;-47
2022/01/20 06:47:19;;;;;;;14.13;13.37;;;19.30;99.90;;;;;;5072078;28;20480;-47
2022/01/20 06:49:47;;;;;;;14.97;13.73;;;19.40;99.90;;;;;;5071887;28;20491;-48
2022/01/20 06:52:14;;;;;;;13.67;12.87;;;19.40;99.50;;;;;;5061910;28;20479;-53
2022/01/20 06:54:41;;;;;;;13.60;13.00;;;19.40;99.00;;;;;;5051932;28;20459;-49
2022/01/20 06:57:07;;;;;;;13.17;12.57;;;19.40;99.00;;;;;;5052031;28;20828;-50
2022/01/20 06:59:34;;;;;;;14.70;13.60;;;19.30;99.00;;;;;;5052842;28;20447;-46
2022/01/20 07:02:01;;;;;;;14.33;13.47;;;19.40;98.90;;;;;;5071602;28;20447;-47
2022/01/20 07:04:27;;;;;;;13.03;12.30;;;19.30;99.10;;;;;;5071724;28;20972;-47
2022/01/20 07:06:56;;;;;;;15.00;14.20;;;19.30;98.70;;;;;;5071437;28;20443;-48
2022/01/20 07:09:23;;;;;;;12.90;12.30;;;19.20;98.20;;;;;;5071699;28;20447;-52
2022/01/20 07:11:49;;;;;;;10.67;10.17;;;19.20;97.60;;;;;;5071433;28;20447;-48
2022/01/20 07:14:16;;;;;;;11.60;11.00;;;19.00;96.90;;;;;;5071776;28;20447;-51
2022/01/20 07:16:43;;;;;;;11.67;11.20;;;19.00;97.40;;;;;;5071654;28;20450;-47
2022/01/20 07:19:10;;;;;;;11.77;11.17;;;18.90;97.20;;;;;;5071742;28;20797;-47
2022/01/20 07:21:36;;;;;;;11.30;10.73;;;19.00;96.80;;;;;;5071461;28;20796;-50
2022/01/20 07:24:07;;;;;;;11.40;10.70;;;18.90;96.70;;;;;;5071421;28;20828;-50
2022/01/20 07:26:34;;;;;;;11.03;10.50;;;18.80;96.70;;;;;;5071608;28;20451;-47
2022/01/20 07:29:00;;;;;;;11.37;10.93;;;18.70;96.30;;;;;;5071459;28;20943;-50
2022/01/20 07:31:27;;;;;;;11.57;11.13;;;18.70;96.10;;;;;;5071239;28;20540;-51
2022/01/20 07:33:54;;;;;;;11.97;11.30;;;18.60;96.20;;;;;;5071451;28;20495;-47
2022/01/20 07:36:21;;;;;;;11.53;10.97;;;18.60;95.60;;;;;;5071390;28;20497;-50
2022/01/20 07:38:47;;;;;;;11.60;10.93;;;18.60;95.20;;;;;;5071451;28;20450;-49
2022/01/20 07:41:16;;;;;;;11.27;10.80;;;18.50;94.90;;;;;;5071416;28;20447;-47
2022/01/20 07:43:43;;;;;;;11.50;11.00;;;18.50;95.10;;;;;;5071271;28;20478;-49
2022/01/20 07:46:10;;;;;;;12.20;11.50;;;18.40;94.50;;;;;;5071157;28;20846;-48
2022/01/20 07:48:37;;;;;;;11.30;10.80;;;18.40;94.90;;;;;;5071340;28;20447;-51
2022/01/20 07:51:05;;;;;;;11.80;11.40;;;18.30;94.50;;;;;;5071114;28;20483;-51
2022/01/20 07:53:32;;;;;;;12.53;11.93;;;18.30;94.70;;;;;;5071429;28;20482;-54
2022/01/20 07:55:59;;;;;;;12.23;11.67;;;18.30;94.30;;;;;;5071257;28;20447;-50
2022/01/20 07:58:27;;;;;;;10.63;10.23;;;18.30;94.10;;;;;;5071144;28;20443;-51
2022/01/20 08:00:54;;;;;;;12.00;11.50;;;18.20;93.80;;;;;;5071184;28;20443;-55
2022/01/20 08:03:21;;;;;;;13.03;12.23;;;18.20;94.10;;;;;;5070887;28;20467;-56
2022/01/20 08:05:47;;;;;;;12.47;11.80;;;18.20;93.60;;;;;;5071158;28;20505;-52
2022/01/20 08:08:14;;;;;;;11.97;11.43;;;18.00;93.60;;;;;;5071238;28;20459;-55
2022/01/20 08:10:41;;;;;;;11.40;11.00;;;18.00;93.40;;;;;;5071045;28;20483;-51
2022/01/20 08:13:08;;;;;;;12.83;12.13;;;17.90;93.40;;;;;;5070724;28;20466;-49
2022/01/20 08:15:37;;;;;;;12.00;11.60;;;17.80;93.20;;;;;;5071069;28;20439;-53
2022/01/20 08:18:04;;;;;;;11.93;11.33;;;17.70;93.80;;;;;;5072601;28;20447;-55
2022/01/20 08:20:31;;;;;;;12.30;11.90;;;17.70;93.60;;;;;;5074930;28;20443;-53
2022/01/20 08:22:58;;;;;;;11.47;11.07;;;17.60;93.40;;;;;;5074506;28;21008;-54
2022/01/20 08:25:25;;;;;;;11.73;11.33;;;17.50;93.30;;;;;;5074947;28;20454;-52
2022/01/20 08:27:53;;;;;;;12.03;11.63;;;17.50;93.40;;;;;;5074739;28;20483;-49
2022/01/20 08:30:22;;;;;;;11.93;11.23;;;17.80;93.40;;;;;;5074523;28;20483;-53
2022/01/20 08:32:51;;;;;;;11.50;11.00;;;18.10;93.00;;;;;;5074340;28;20829;-55
2022/01/20 08:35:19;;;;;;;11.43;10.97;;;18.30;92.10;;;;;;5074512;28;20454;-52
2022/01/20 08:37:46;;;;;;;11.60;11.20;;;18.40;91.40;;;;;;5074603;28;20450;-51
2022/01/20 08:40:16;;;;;;;11.23;10.83;;;18.60;90.40;;;;;;5074546;28;20443;-53
2022/01/20 08:42:45;;;;;;;13.30;12.70;;;18.60;89.40;;;;;;5074179;28;20463;-55
2022/01/20 08:45:14;;;;;;;13.20;12.60;;;18.70;88.40;;;;;;5074546;28;20458;-52
2022/01/20 08:47:42;;;;;;;11.40;11.00;;;18.80;86.80;;;;;;5074348;28;20538;-52
2022/01/20 08:50:11;;;;;;;12.23;11.73;;;18.80;84.90;;;;;;5074406;28;20856;-50
2022/01/20 08:52:38;;;;;;;12.30;11.90;;;18.80;84.50;;;;;;5073842;28;20482;-52
2022/01/20 08:55:07;;;;;;;12.47;11.97;;;18.80;84.80;;;;;;5074463;28;20454;-51
2022/01/20 08:57:33;;;;;;;11.53;11.17;;;18.80;82.70;;;;;;5074275;28;20509;-53
2022/01/20 09:00:00;;;;;;;12.10;11.70;;;18.80;81.90;;;;;;5074217;28;20454;-54
2022/01/20 09:02:27;;;;;;;12.70;12.30;;;18.80;81.60;;;;;;5073750;28;20984;-51
2022/01/20 09:04:54;;;;;;;11.87;11.50;;;18.80;80.20;;;;;;5074076;28;20478;-52
2022/01/20 09:07:22;;;;;;;10.43;10.10;;;18.80;80.20;;;;;;5073928;28;20450;-53
2022/01/20 09:09:50;;;;;;;11.47;11.17;;;18.80;78.60;;;;;;5074130;28;20481;-50
2022/01/20 09:15:27;;;;;;;13.27;12.67;;;18.70;78.80;;;;;;5073659;28;20538;-50
2022/01/20 09:17:54;;;;;;;12.87;12.20;;;18.70;78.90;;;;;;5073851;28;20481;-54
2022/01/20 09:20:21;;;;;;;12.30;11.90;;;18.70;78.50;;;;;;5073676;28;20459;-51
2022/01/20 09:22:51;;;;;;;11.73;11.43;;;18.70;78.10;;;;;;5073556;28;20475;-51
2022/01/20 09:25:18;;;;;;;11.70;11.40;;;18.70;77.20;;;;;;5073724;28;20487;-54
2022/01/20 09:27:45;;;;;;;11.17;10.87;;;18.60;76.70;;;;;;5073573;28;20447;-52
2022/01/20 09:30:17;;;;;;;12.20;11.80;;;18.60;76.20;;;;;;5073326;28;20767;-55
2022/01/20 09:32:46;;;;;;;11.40;11.10;;;18.50;76.50;;;;;;5073388;28;20520;-51
2022/01/20 09:35:13;;;;;;;12.07;11.67;;;18.50;75.40;;;;;;5073622;28;20447;-51
2022/01/20 09:37:42;;;;;;;11.47;11.07;;;18.40;75.70;;;;;;5073573;28;20455;-55
2022/01/20 09:40:11;;;;;;;12.27;11.50;;;18.40;75.40;;;;;;5073531;28;20494;-51
2022/01/20 09:42:37;;;;;;;11.90;11.17;;;18.40;76.20;;;;;;5073042;28;20475;-52
2022/01/20 09:45:05;;;;;;;11.83;11.50;;;18.30;74.50;;;;;;5073265;28;20451;-49
2022/01/20 09:47:31;;;;;;;11.87;11.40;;;18.30;75.40;;;;;;5073247;28;20475;-51
2022/01/20 09:49:58;;;;;;;12.03;11.63;;;18.30;74.80;;;;;;5073211;28;20451;-52
2022/01/20 09:52:27;;;;;;;11.60;11.23;;;18.30;75.40;;;;;;5072753;28;20541;-52
2022/01/20 09:54:54;;;;;;;11.17;10.87;;;18.30;74.60;;;;;;5073135;28;20443;-55
2022/01/20 09:57:22;;;;;;;10.70;10.40;;;18.30;74.60;;;;;;5073059;28;20454;-51
2022/01/20 09:59:50;;;;;;;11.60;11.20;;;18.30;73.20;;;;;;5073113;28;20440;-49
2022/01/20 10:02:19;;;;;;;12.47;11.97;;;18.30;73.90;;;;;;5072738;28;20916;-50
2022/01/20 10:04:46;;;;;;;11.40;11.10;;;18.30;73.00;;;;;;5072844;28;20451;-55
2022/01/20 10:07:15;;;;;;;12.47;12.10;;;18.20;71.60;;;;;;5072847;28;20459;-52
2022/01/20 10:09:45;;;;;;;11.53;11.23;;;18.20;72.40;;;;;;5072693;28;20435;-53
2022/01/20 10:12:14;;;;;;;11.73;11.43;;;18.20;73.30;;;;;;5072412;28;20532;-55
2022/01/20 10:14:44;;;;;;;11.87;11.47;;;18.10;72.40;;;;;;5072745;28;20875;-51
2022/01/20 10:17:15;;;;;;;11.03;10.63;;;18.00;71.50;;;;;;5072757;28;20451;-56
2022/01/20 10:19:43;;;;;;;10.90;10.50;;;18.00;71.90;;;;;;5072685;28;20447;-51
2022/01/20 10:22:14;;;;;;;12.03;11.50;;;18.00;72.00;;;;;;5072255;28;20506;-52
2022/01/20 10:24:41;;;;;;;12.27;11.77;;;18.10;72.40;;;;;;5072456;28;20459;-55
2022/01/20 10:27:13;;;;;;;11.80;11.40;;;18.30;72.30;;;;;;5072500;28;20470;-56
2022/01/20 10:29:40;;;;;;;11.33;11.03;;;18.40;71.30;;;;;;5072300;28;20451;-54
2022/01/20 10:32:12;;;;;;;11.70;11.30;;;18.50;70.40;;;;;;5072184;28;20479;-52
2022/01/20 10:34:39;;;;;;;11.73;11.33;;;18.60;69.50;;;;;;5072401;28;20775;-57
2022/01/20 10:37:13;;;;;;;11.93;11.53;;;18.80;68.50;;;;;;5072257;28;20811;-55
2022/01/20 10:39:44;;;;;;;11.73;11.33;;;19.00;67.90;;;;;;5071952;28;20458;-55
2022/01/20 10:42:14;;;;;;;12.10;11.80;;;19.10;67.10;;;;;;5071710;28;20517;-57
2022/01/20 10:44:43;;;;;;;11.87;11.50;;;19.10;65.80;;;;;;5072125;28;20444;-53
2022/01/20 10:47:14;;;;;;;11.10;10.80;;;19.10;65.50;;;;;;5071993;28;20449;-53
2022/01/20 10:49:41;;;;;;;12.00;11.70;;;19.00;65.40;;;;;;5071944;28;20452;-58
2022/01/20 10:52:10;;;;;;;11.43;11.03;;;18.90;65.80;;;;;;5071542;28;20992;-49
2022/01/20 10:54:42;;;;;;;12.10;11.60;;;18.90;67.40;;;;;;5071973;28;20858;-54
2022/01/20 10:57:10;;;;;;;12.93;12.43;;;18.90;68.30;;;;;;5071972;28;20443;-53
2022/01/20 10:59:51;;;;;;;13.13;12.43;;;18.90;69.70;;;;;;5062570;28;20945;-51
2022/01/20 11:02:21;;;;;;;17.77;16.53;;;18.90;71.10;;;;;;5064869;28;20708;-52
2022/01/20 11:04:49;;;;;;;18.53;17.30;;;19.10;72.60;;;;;;5069083;28;20455;-53
2022/01/20 11:07:16;;;;;;;18.20;16.80;;;19.00;74.00;;;;;;5071756;28;20924;-58
2022/01/20 11:09:45;;;;;;;20.17;18.30;;;19.00;75.50;;;;;;5071687;28;20446;-50
2022/01/20 11:12:13;;;;;;;18.77;17.53;;;18.90;76.40;;;;;;5071081;28;20581;-52
2022/01/20 11:14:40;;;;;;;19.03;17.60;;;18.90;78.30;;;;;;5032245;28;20934;-53
2022/01/20 11:17:07;;;;;;;18.53;17.20;;;18.80;78.90;;;;;;5031935;28;20441;-57
2022/01/20 11:19:38;;;;;;;18.30;15.87;;;18.70;77.60;;;;;;5031757;28;20452;-57
2022/01/20 11:22:11;;;;;;;18.07;16.60;;;18.60;77.40;;;;;;5031487;28;20453;-55
2022/01/20 11:24:39;;;;;;;18.10;16.33;;;18.50;77.30;;;;;;5070749;28;20462;-51
2022/01/20 11:27:08;;;;;;;18.30;16.90;;;18.50;78.40;;;;;;5071541;28;20459;-52
2022/01/20 11:29:47;;;;;;;15.57;14.47;;;18.60;77.90;;;;;;5068795;28;20867;-55
2022/01/20 11:32:19;;;;;;;15.10;14.20;;;18.60;77.10;;;;;;5051154;28;20490;-54
2022/01/20 11:34:58;;;;;;;15.10;14.30;;;18.60;77.90;;;;;;5051454;28;20993;-55
2022/01/20 11:37:25;;;;;;;15.53;14.30;;;18.50;77.20;;;;;;5051476;28;20447;-56
2022/01/20 11:39:53;;;;;;;16.07;15.00;;;18.90;76.60;;;;;;5055021;28;20457;-52
2022/01/20 11:42:22;;;;;;;15.67;14.60;;;19.50;73.40;;;;;;5071015;28;20463;-55
2022/01/20 11:44:49;;;;;;;16.03;15.13;;;20.00;69.20;;;;;;5071305;28;20451;-56
2022/01/20 11:47:16;;;;;;;16.07;15.07;;;20.90;66.40;;;;;;5071405;28;20467;-52
2022/01/20 11:49:44;;;;;;;15.40;14.37;;;21.60;59.70;;;;;;5068745;28;20454;-57
2022/01/20 11:52:23;;;;;;;14.70;13.70;;;21.60;57.80;;;;;;5052817;28;20862;-58
2022/01/20 11:54:49;;;;;;;14.10;13.30;;;20.80;58.00;;;;;;5056788;28;20490;-55
2022/01/20 11:57:21;;;;;;;13.50;12.80;;;20.40;59.50;;;;;;5075479;28;20465;-57
2022/01/20 11:59:50;;;;;;;13.67;13.07;;;20.10;61.80;;;;;;5073652;28;20454;-52
2022/01/20 12:02:29;;;;;;;15.27;14.47;;;20.00;63.10;;;;;;5075010;28;20467;-50
2022/01/20 12:04:56;;;;;;;14.23;13.53;;;20.50;61.70;;;;;;5075120;28;20439;-47
2022/01/20 12:07:29;;;;;;;14.00;13.17;;;20.60;59.10;;;;;;5074792;28;20570;-48
2022/01/20 12:10:06;;;;;;;14.30;13.40;;;20.60;59.50;;;;;;5075121;28;20451;-50
2022/01/20 12:12:33;;;;;;;14.00;13.30;;;20.80;58.20;;;;;;5074771;28;20590;-50
2022/01/20 12:15:11;;;;;;;14.73;13.67;;;20.30;58.10;;;;;;5075028;28;20545;-50
2022/01/20 12:17:41;;;;;;;13.90;13.30;;;19.90;59.70;;;;;;5074957;28;20450;-48
2022/01/20 12:20:10;;;;;;;14.37;13.67;;;19.60;60.30;;;;;;5075266;28;20439;-52
2022/01/20 12:22:41;;;;;;;14.30;13.40;;;19.40;60.80;;;;;;5074560;28;20491;-50
2022/01/20 12:25:14;;;;;;;14.40;13.80;;;19.40;61.60;;;;;;5074881;28;20447;-50
2022/01/20 12:27:42;;;;;;;14.07;13.37;;;19.40;60.80;;;;;;5074711;28;20443;-49
2022/01/20 12:30:17;;;;;;;13.70;13.10;;;19.40;60.50;;;;;;5074608;28;20451;-54
2022/01/20 12:32:44;;;;;;;13.63;13.00;;;19.40;60.90;;;;;;5074383;28;20490;-50
2022/01/20 12:35:11;;;;;;;13.37;12.67;;;19.30;61.00;;;;;;5074571;28;20534;-51
2022/01/20 12:37:40;;;;;;;13.20;12.67;;;19.40;61.40;;;;;;5074608;28;20818;-50
2022/01/20 12:40:17;;;;;;;14.13;13.53;;;19.60;61.20;;;;;;5074505;28;20447;-53
2022/01/20 12:42:45;;;;;;;12.97;12.40;;;19.70;60.70;;;;;;5074116;28;20491;-54
2022/01/20 12:48:12;;;;;;;13.87;13.07;;;20.10;59.50;;;;;;5074462;28;20504;-51
2022/01/20 12:50:39;;;;;;;13.73;13.17;;;20.20;58.70;;;;;;5074279;28;20450;-50
2022/01/20 12:53:07;;;;;;;13.37;12.87;;;20.10;58.20;;;;;;5073740;28;20867;-49
2022/01/20 12:55:33;;;;;;;13.17;12.60;;;19.90;58.40;;;;;;5074258;28;20867;-49
2022/01/20 12:58:00;;;;;;;11.93;11.43;;;19.80;57.80;;;;;;5074115;28;20443;-52
2022/01/20 13:00:27;;;;;;;13.33;12.80;;;19.70;58.60;;;;;;5074069;28;20543;-50
2022/01/20 13:02:53;;;;;;;12.83;12.43;;;19.60;58.80;;;;;;5073380;28;20886;-49
2022/01/20 13:05:23;;;;;;;13.43;12.83;;;19.60;59.00;;;;;;5073939;28;20454;-51
2022/01/20 13:07:52;;;;;;;13.67;13.03;;;19.70;58.30;;;;;;5074048;28;20450;-52
2022/01/20 13:10:30;;;;;;;13.07;12.50;;;19.70;58.20;;;;;;5073977;28;20447;-52
2022/01/20 13:12:57;;;;;;;14.00;13.30;;;19.60;58.10;;;;;;5073672;28;20491;-51
2022/01/20 13:15:24;;;;;;;13.90;13.40;;;19.50;57.70;;;;;;5073870;28;20958;-52
2022/01/20 13:18:02;;;;;;;14.10;13.40;;;19.40;58.20;;;;;;5073770;28;20447;-51
2022/01/20 13:20:31;;;;;;;12.70;12.30;;;19.30;58.00;;;;;;5074035;28;20473;-51
2022/01/20 13:22:59;;;;;;;12.50;12.10;;;19.20;58.30;;;;;;5073498;28;20525;-55
2022/01/20 13:25:29;;;;;;;12.50;12.17;;;19.10;57.90;;;;;;5073765;28;20936;-51
2022/01/20 13:27:58;;;;;;;13.80;13.10;;;18.90;59.10;;;;;;5073622;28;20446;-50